createdAt,value
2023-02-11T00:01:45.761Z,26.57
2023-02-11T00:04:14.532Z,27.33
2023-02-11T00:06:44.736Z,28.07
2023-02-11T00:09:13.431Z,27.13
2023-02-11T00:11:42.495Z,25.17
2023-02-11T00:14:13.132Z,28.07
2023-02-11T00:16:42.245Z,26.70
2023-02-11T00:19:11.922Z,25.60
2023-02-11T00:21:41.788Z,28.67
2023-02-11T00:24:11.962Z,25.30
2023-02-11T00:26:40.727Z,25.93
2023-02-11T00:29:09.499Z,28.37
2023-02-11T00:31:38.464Z,28.30
2023-02-11T00:34:07.292Z,30.57
2023-02-11T00:36:36.044Z,27.90
2023-02-11T00:39:05.125Z,27.90
2023-02-11T00:41:35.666Z,29.07
2023-02-11T00:44:04.884Z,29.07
2023-02-11T00:46:33.665Z,28.60
2023-02-11T00:49:02.431Z,28.43
2023-02-11T00:51:31.180Z,28.53
2023-02-11T00:53:59.982Z,29.43
2023-02-11T00:56:28.765Z,27.63
2023-02-11T00:58:59.111Z,29.73
2023-02-11T01:01:28.535Z,29.73
2023-02-11T01:03:57.391Z,30.80
2023-02-11T01:06:26.178Z,31.70
2023-02-11T01:08:54.970Z,31.53
2023-02-11T01:11:23.928Z,29.83
2023-02-11T01:13:52.920Z,31.60
2023-02-11T01:16:23.808Z,32.50
2023-02-11T01:18:52.882Z,24.67
2023-02-11T01:21:21.650Z,29.00
2023-02-11T01:23:50.464Z,28.20
2023-02-11T01:26:19.337Z,30.00
2023-02-11T01:28:48.169Z,28.73
2023-02-11T01:31:17.072Z,30.73
2023-02-11T01:33:47.359Z,30.30
2023-02-11T01:36:16.129Z,31.50
2023-02-11T01:38:45.757Z,29.60
2023-02-11T01:41:16.200Z,30.33
2023-02-11T01:43:47.251Z,28.43
2023-02-11T01:46:36.386Z,28.57
2023-02-11T01:49:11.610Z,30.67
2023-02-11T01:51:44.058Z,28.60
2023-02-11T01:54:29.281Z,26.43
2023-02-11T01:57:18.068Z,29.63
2023-02-11T01:59:50.060Z,25.73
2023-02-11T02:02:23.927Z,28.20
2023-02-11T02:05:02.090Z,27.37
2023-02-11T02:07:37.417Z,27.10
2023-02-11T02:10:12.846Z,24.23
2023-02-11T02:12:41.589Z,27.30
2023-02-11T02:15:29.778Z,28.00
2023-02-11T02:18:07.919Z,25.50
2023-02-11T02:21:18.117Z,26.60
2023-02-11T02:24:26.501Z,25.10
2023-02-11T02:27:14.824Z,26.43
2023-02-11T02:30:15.706Z,25.10
2023-02-11T02:33:20.587Z,24.50
2023-02-11T02:36:01.714Z,27.80
2023-02-11T02:38:35.718Z,26.57
2023-02-11T02:41:09.572Z,26.53
2023-02-11T02:43:44.154Z,27.10
2023-02-11T02:46:15.424Z,25.23
2023-02-11T02:48:46.444Z,25.43
2023-02-11T02:51:39.051Z,25.33
2023-02-11T02:54:30.924Z,25.47
2023-02-11T02:57:09.280Z,25.00
2023-02-11T02:59:48.224Z,25.70
2023-02-11T03:02:26.266Z,27.33
2023-02-11T03:05:03.665Z,28.43
2023-02-11T03:07:41.572Z,29.30
2023-02-11T03:10:14.033Z,26.73
2023-02-11T03:12:45.388Z,27.70
2023-02-11T03:15:15.297Z,27.87
2023-02-11T03:17:49.432Z,27.07
2023-02-11T03:20:21.452Z,28.73
2023-02-11T03:22:56.078Z,25.43
2023-02-11T03:25:31.312Z,27.20
2023-02-11T03:28:07.308Z,25.57
2023-02-11T03:30:42.071Z,26.43
2023-02-11T03:33:19.118Z,24.40
2023-02-11T03:35:55.704Z,27.33
2023-02-11T03:38:29.275Z,30.30
2023-02-11T03:40:59.413Z,25.60
2023-02-11T03:43:32.378Z,27.30
2023-02-11T03:46:02.803Z,28.80
2023-02-11T03:48:34.658Z,28.37
2023-02-11T03:51:07.764Z,28.33
2023-02-11T03:53:37.926Z,29.17
2023-02-11T03:56:10.727Z,28.23
2023-02-11T03:58:39.597Z,27.00
2023-02-11T04:01:10.212Z,28.40
2023-02-11T04:03:39.267Z,28.27
2023-02-11T04:06:10.193Z,28.83
2023-02-11T04:08:39.057Z,26.17
2023-02-11T04:11:07.826Z,28.37
2023-02-11T04:13:36.662Z,28.93
2023-02-11T04:16:05.547Z,25.90
2023-02-11T04:18:36.470Z,25.80
2023-02-11T04:21:05.363Z,27.50
2023-02-11T04:23:35.647Z,27.00
2023-02-11T04:26:04.809Z,26.33
2023-02-11T04:28:33.551Z,28.37
2023-02-11T04:31:02.355Z,26.23
2023-02-11T04:33:31.061Z,26.83
2023-02-11T04:35:59.746Z,25.53
2023-02-11T04:38:28.488Z,27.13
2023-02-11T04:41:00.745Z,26.37
2023-02-11T04:43:32.456Z,28.27
2023-02-11T04:46:01.197Z,26.70
2023-02-11T04:48:29.933Z,26.97
2023-02-11T04:50:58.640Z,25.97
2023-02-11T04:53:27.373Z,24.87
2023-02-11T04:55:57.520Z,26.30
2023-02-11T04:58:26.219Z,25.90
2023-02-11T05:00:54.950Z,25.80
2023-02-11T05:03:23.663Z,24.90
2023-02-11T05:05:52.814Z,27.80
2023-02-11T05:08:21.660Z,24.97
2023-02-11T05:10:50.212Z,26.40
2023-02-11T05:13:20.346Z,25.20
2023-02-11T05:15:49.345Z,25.67
2023-02-11T05:18:18.196Z,22.33
2023-02-11T05:20:47.087Z,23.17
2023-02-11T05:23:15.791Z,26.03
2023-02-11T05:25:44.474Z,24.70
2023-02-11T05:28:13.256Z,26.73
2023-02-11T05:30:43.496Z,23.33
2023-02-11T05:33:12.259Z,23.90
2023-02-11T05:35:41.003Z,24.30
2023-02-11T05:38:09.749Z,23.60
2023-02-11T05:40:38.732Z,26.60
2023-02-11T05:43:07.472Z,26.73
2023-02-11T05:45:36.342Z,22.90
2023-02-11T05:48:07.179Z,24.63
2023-02-11T05:50:36.009Z,24.97
2023-02-11T05:53:05.840Z,24.57
2023-02-11T05:55:35.230Z,26.00
2023-02-11T05:58:04.578Z,23.40
2023-02-11T06:00:33.352Z,25.30
2023-02-11T06:03:02.099Z,25.67
2023-02-11T06:05:32.266Z,27.20
2023-02-11T06:08:01.051Z,26.90
2023-02-11T06:10:29.805Z,26.20
2023-02-11T06:12:58.482Z,28.13
2023-02-11T06:15:27.274Z,27.60
2023-02-11T06:17:56.106Z,24.90
2023-02-11T06:20:24.857Z,25.70
2023-02-11T06:22:55.016Z,25.90
2023-02-11T06:25:23.769Z,26.70
2023-02-11T06:27:52.591Z,27.47
2023-02-11T06:30:21.852Z,25.47
2023-02-11T06:32:51.458Z,26.50
2023-02-11T06:35:20.417Z,27.67
2023-02-11T06:37:49.923Z,27.40
2023-02-11T06:40:20.232Z,27.03
2023-02-11T06:42:48.939Z,25.37
2023-02-11T06:45:18.670Z,28.07
2023-02-11T06:47:47.437Z,24.73
2023-02-11T06:50:16.655Z,25.57
2023-02-11T06:52:45.339Z,26.23
2023-02-11T06:55:14.168Z,27.70
2023-02-11T06:57:44.306Z,27.00
2023-02-11T07:00:14.575Z,29.50
2023-02-11T07:02:43.406Z,28.13
2023-02-11T07:05:12.625Z,28.90
2023-02-11T07:07:41.511Z,28.63
2023-02-11T07:10:10.863Z,26.03
2023-02-11T07:12:39.519Z,26.53
2023-02-11T07:15:10.235Z,23.90
2023-02-11T07:17:38.982Z,27.20
2023-02-11T07:20:09.357Z,26.90
2023-02-11T07:22:38.344Z,27.03
2023-02-11T07:25:07.604Z,28.17
2023-02-11T07:27:36.502Z,27.40
2023-02-11T07:30:07.414Z,26.10
2023-02-11T07:32:37.599Z,25.50
2023-02-11T07:35:07.263Z,26.30
2023-02-11T07:37:36.266Z,25.87
2023-02-11T07:40:05.691Z,27.23
2023-02-11T07:42:35.348Z,24.13
2023-02-11T07:45:04.219Z,26.17
2023-02-11T07:47:32.843Z,26.20
2023-02-11T07:50:02.964Z,26.13
2023-02-11T07:52:31.978Z,24.07
2023-02-11T07:55:02.611Z,22.87
2023-02-11T07:57:32.553Z,24.47
2023-02-11T08:00:01.262Z,24.50
2023-02-11T08:02:29.997Z,23.70
2023-02-11T08:04:58.711Z,24.43
2023-02-11T08:07:30.029Z,23.47
2023-02-11T08:09:58.698Z,23.97
2023-02-11T08:12:27.425Z,24.60
2023-02-11T08:14:56.538Z,22.07
2023-02-11T08:17:25.241Z,24.57
2023-02-11T08:19:53.881Z,25.07
2023-02-11T08:22:22.551Z,26.20
2023-02-11T08:24:52.672Z,24.67
2023-02-11T08:27:21.403Z,25.40
2023-02-11T08:29:50.302Z,24.90
2023-02-11T08:32:19.083Z,26.53
2023-02-11T08:34:47.816Z,23.57
2023-02-11T08:37:16.560Z,24.60
2023-02-11T08:39:47.452Z,24.43
2023-02-11T08:42:17.584Z,23.60
2023-02-11T08:44:46.328Z,23.87
2023-02-11T08:47:17.813Z,25.30
2023-02-11T08:49:47.025Z,25.70
2023-02-11T08:52:15.714Z,26.27
2023-02-11T08:54:44.559Z,26.80
2023-02-11T08:57:13.547Z,26.93
2023-02-11T08:59:44.782Z,25.83
2023-02-11T09:02:14.605Z,29.50
2023-02-11T09:04:43.321Z,27.30
2023-02-11T09:07:12.880Z,29.70
2023-02-11T09:09:42.136Z,26.30
2023-02-11T09:12:10.970Z,26.07
2023-02-11T09:14:39.756Z,29.67
2023-02-11T09:17:09.826Z,27.90
2023-02-11T09:19:38.652Z,26.87
2023-02-11T09:22:07.382Z,25.70
2023-02-11T09:24:36.154Z,26.17
2023-02-11T09:27:04.984Z,26.83
2023-02-11T09:29:33.685Z,26.67
2023-02-11T09:32:02.477Z,26.30
2023-02-11T09:34:32.762Z,25.80
2023-02-11T09:37:01.501Z,25.77
2023-02-11T09:39:30.624Z,25.40
2023-02-11T09:42:22.125Z,24.90
2023-02-11T09:44:51.175Z,24.20
2023-02-11T09:47:29.559Z,24.93
2023-02-11T09:50:05.251Z,26.40
2023-02-11T09:52:40.636Z,24.13
2023-02-11T09:55:20.427Z,24.00
2023-02-11T09:57:49.495Z,24.80
2023-02-11T10:00:22.366Z,23.10
2023-02-11T10:03:23.620Z,25.10
2023-02-11T10:06:16.824Z,23.00
2023-02-11T10:08:58.529Z,21.73
2023-02-11T10:11:36.098Z,25.10
2023-02-11T10:14:20.381Z,21.33
2023-02-11T10:17:04.718Z,22.80
2023-02-11T10:19:55.858Z,22.63
2023-02-11T10:22:32.486Z,22.20
2023-02-11T10:25:02.213Z,22.60
2023-02-11T10:27:34.245Z,20.07
2023-02-11T10:30:07.948Z,22.87
2023-02-11T10:32:44.046Z,21.97
2023-02-11T10:35:18.226Z,22.90
2023-02-11T10:37:48.674Z,24.10
2023-02-11T10:40:19.914Z,22.73
2023-02-11T10:42:54.361Z,22.87
2023-02-11T10:45:29.390Z,22.80
2023-02-11T10:47:59.791Z,22.50
2023-02-11T10:50:30.307Z,22.50
2023-02-11T10:53:20.023Z,23.40
2023-02-11T10:55:55.037Z,23.77
2023-02-11T10:58:29.634Z,24.90
2023-02-11T11:01:00.748Z,22.40
2023-02-11T11:03:33.753Z,25.07
2023-02-11T11:06:04.123Z,25.87
2023-02-11T11:08:49.195Z,21.17
2023-02-11T11:11:19.924Z,23.87
2023-02-11T11:13:59.434Z,24.73
2023-02-11T11:16:29.950Z,23.23
2023-02-11T11:19:22.052Z,24.17
2023-02-11T11:21:52.910Z,23.33
2023-02-11T11:24:29.653Z,23.37
2023-02-11T11:27:01.161Z,24.60
2023-02-11T11:29:35.342Z,24.50
2023-02-11T11:32:07.315Z,25.37
2023-02-11T11:34:39.107Z,24.73
2023-02-11T11:37:15.514Z,24.20
2023-02-11T11:39:55.797Z,25.33
2023-02-11T11:42:28.393Z,24.17
2023-02-11T11:45:01.856Z,23.40
2023-02-11T11:47:46.331Z,26.03
2023-02-11T11:50:36.883Z,25.13
2023-02-11T11:53:14.457Z,22.87
2023-02-11T11:55:47.998Z,25.70
2023-02-11T11:58:20.454Z,22.17
2023-02-11T12:01:00.835Z,24.83
2023-02-11T12:03:56.644Z,24.90
2023-02-11T12:06:36.517Z,23.43
2023-02-11T12:09:17.983Z,22.73
2023-02-11T12:12:08.259Z,24.83
2023-02-11T12:14:47.679Z,25.30
2023-02-11T12:17:27.455Z,26.27
2023-02-11T12:20:20.263Z,26.23
2023-02-11T12:23:05.691Z,24.00
2023-02-11T12:25:40.894Z,26.70
2023-02-11T12:28:25.682Z,24.13
2023-02-11T12:31:06.302Z,25.60
2023-02-11T12:33:52.771Z,24.43
2023-02-11T12:36:33.994Z,24.53
2023-02-11T12:39:22.606Z,22.87
2023-02-11T12:42:34.535Z,26.57
2023-02-11T12:45:31.845Z,22.83
2023-02-11T12:48:18.769Z,23.00
2023-02-11T12:50:59.965Z,21.10
2023-02-11T12:53:54.039Z,24.30
2023-02-11T12:56:28.566Z,22.10
2023-02-11T12:59:02.064Z,21.13
2023-02-11T13:01:37.309Z,23.27
2023-02-11T13:04:13.682Z,23.53
2023-02-11T13:06:46.226Z,23.27
2023-02-11T13:09:21.217Z,22.23
2023-02-11T13:11:54.476Z,22.87
2023-02-11T13:14:32.468Z,24.23
2023-02-11T13:17:06.043Z,24.10
2023-02-11T13:19:40.375Z,23.73
2023-02-11T13:22:16.137Z,24.73
2023-02-11T13:24:49.687Z,22.53
2023-02-11T13:27:31.533Z,22.10
2023-02-11T13:30:28.315Z,22.70
2023-02-11T13:33:32.941Z,22.40
2023-02-11T13:36:27.607Z,25.17
2023-02-11T13:39:02.689Z,26.43
2023-02-11T13:41:40.146Z,23.17
2023-02-11T13:44:26.124Z,20.80
2023-02-11T13:47:03.962Z,23.13
2023-02-11T13:49:37.124Z,25.80
2023-02-11T13:52:22.659Z,24.70
2023-02-11T13:54:53.996Z,23.93
2023-02-11T13:57:41.114Z,27.63
2023-02-11T14:00:50.189Z,21.20
2023-02-11T14:03:51.426Z,25.90
2023-02-11T14:06:45.363Z,23.23
2023-02-11T14:09:42.095Z,23.90
2023-02-11T14:12:33.982Z,23.90
2023-02-11T14:15:23.193Z,23.70
2023-02-11T14:17:53.114Z,22.10
2023-02-11T14:20:39.708Z,24.57
2023-02-11T14:23:20.357Z,23.23
2023-02-11T14:26:04.944Z,22.80
2023-02-11T14:28:37.120Z,24.30
2023-02-11T14:31:12.984Z,22.67
2023-02-11T14:34:16.596Z,19.80
2023-02-11T14:37:16.142Z,23.10
2023-02-11T14:39:58.083Z,23.90
2023-02-11T14:42:32.855Z,24.70
2023-02-11T14:45:11.111Z,21.27
2023-02-11T14:47:47.890Z,23.73
2023-02-11T14:50:30.085Z,21.47
2023-02-11T14:53:02.966Z,24.20
2023-02-11T14:55:37.424Z,22.87
2023-02-11T14:58:18.133Z,25.00
2023-02-11T15:00:57.422Z,24.70
2023-02-11T15:03:37.492Z,27.63
2023-02-11T15:06:10.292Z,24.40
2023-02-11T15:08:44.065Z,25.00
2023-02-11T15:11:17.088Z,26.27
2023-02-11T15:13:50.900Z,27.27
2023-02-11T15:16:24.508Z,26.20
2023-02-11T15:18:57.057Z,26.43
2023-02-11T15:21:28.951Z,27.77
2023-02-11T15:24:01.867Z,27.03
2023-02-11T15:26:32.133Z,27.80
2023-02-11T15:29:02.961Z,28.73
2023-02-11T15:31:35.176Z,28.40
2023-02-11T15:34:11.322Z,31.40
2023-02-11T15:36:49.406Z,31.20
2023-02-11T15:39:32.665Z,31.93
2023-02-11T15:42:20.457Z,31.63
2023-02-11T15:45:12.866Z,30.63
2023-02-11T15:47:49.455Z,30.70
2023-02-11T15:50:25.160Z,31.33
2023-02-11T15:52:59.737Z,32.70
2023-02-11T15:55:31.321Z,31.50
2023-02-11T15:58:04.002Z,32.40
2023-02-11T16:00:39.512Z,31.97
2023-02-11T16:03:10.294Z,33.90
2023-02-11T16:05:41.332Z,31.07
2023-02-11T16:08:25.341Z,31.43
2023-02-11T16:11:01.583Z,28.00
2023-02-11T16:13:35.429Z,31.50
2023-02-11T16:16:20.297Z,29.93
2023-02-11T16:19:06.003Z,27.73
2023-02-11T16:21:39.837Z,31.77
2023-02-11T16:24:20.730Z,27.97
2023-02-11T16:26:54.023Z,28.50
2023-02-11T16:29:28.569Z,29.37
2023-02-11T16:32:13.659Z,27.37
2023-02-11T16:34:43.781Z,28.50
2023-02-11T16:37:14.688Z,28.10
2023-02-11T16:39:45.369Z,28.83
2023-02-11T16:42:19.569Z,25.30
2023-02-11T16:44:49.660Z,26.57
2023-02-11T16:47:31.458Z,25.90
2023-02-11T16:50:02.835Z,25.90
2023-02-11T16:52:34.417Z,27.50
2023-02-11T16:55:05.764Z,26.40
2023-02-11T16:57:38.957Z,25.73
2023-02-11T17:00:10.627Z,27.47
2023-02-11T17:02:42.454Z,26.00
2023-02-11T17:05:23.488Z,25.53
2023-02-11T17:07:53.786Z,25.43
2023-02-11T17:10:25.453Z,25.60
2023-02-11T17:12:55.684Z,24.50
2023-02-11T17:15:27.469Z,31.83
2023-02-11T17:18:00.329Z,29.20
2023-02-11T17:20:30.189Z,24.40
2023-02-11T17:23:02.448Z,25.00
2023-02-11T17:25:33.398Z,24.60
2023-02-11T17:28:02.716Z,25.37
2023-02-11T17:30:33.248Z,25.90
2023-02-11T17:33:08.254Z,25.13
2023-02-11T17:35:42.697Z,26.27
2023-02-11T17:38:13.088Z,29.00
2023-02-11T17:40:43.372Z,25.50
2023-02-11T17:43:13.619Z,26.47
2023-02-11T17:45:44.651Z,25.80
2023-02-11T17:48:16.369Z,29.17
2023-02-11T17:50:50.252Z,27.60
2023-02-11T17:53:22.018Z,30.40
2023-02-11T17:55:52.436Z,29.47
2023-02-11T17:58:26.097Z,27.20
2023-02-11T18:00:59.821Z,29.67
2023-02-11T18:03:32.052Z,36.93
2023-02-11T18:06:03.608Z,36.33
2023-02-11T18:08:36.118Z,28.90
2023-02-11T18:11:11.667Z,28.00
2023-02-11T18:13:42.608Z,28.90
2023-02-11T18:16:16.757Z,30.00
2023-02-11T18:18:54.194Z,30.63
2023-02-11T18:21:24.594Z,28.20
2023-02-11T18:24:05.893Z,28.20
2023-02-11T18:26:42.030Z,30.87
2023-02-11T18:29:13.331Z,29.77
2023-02-11T18:31:43.881Z,27.67
2023-02-11T18:34:18.878Z,30.40
2023-02-11T18:36:49.692Z,28.13
2023-02-11T18:39:20.889Z,31.00
2023-02-11T18:41:55.297Z,29.87
2023-02-11T18:44:26.294Z,29.37
2023-02-11T18:46:57.163Z,29.30
2023-02-11T18:49:33.778Z,29.97
2023-02-11T18:52:04.198Z,29.50
2023-02-11T18:54:35.924Z,27.40
2023-02-11T18:57:07.675Z,30.60
2023-02-11T18:59:37.498Z,30.10
2023-02-11T19:02:08.307Z,32.20
2023-02-11T19:04:41.327Z,31.13
2023-02-11T19:07:12.050Z,29.27
2023-02-11T19:09:42.072Z,30.60
2023-02-11T19:12:12.969Z,31.57
2023-02-11T19:14:43.535Z,29.10
2023-02-11T19:17:16.188Z,30.27
2023-02-11T19:19:50.535Z,31.23
2023-02-11T19:22:22.335Z,29.53
2023-02-11T19:24:53.215Z,27.80
2023-02-11T19:27:23.583Z,31.03
2023-02-11T19:29:55.890Z,31.77
2023-02-11T19:32:25.771Z,29.27
2023-02-11T19:34:58.740Z,31.30
2023-02-11T19:37:32.098Z,44.80
2023-02-11T19:40:02.389Z,32.87
2023-02-11T19:42:32.411Z,31.90
2023-02-11T19:45:01.910Z,32.97
2023-02-11T19:47:32.716Z,29.07
2023-02-11T19:50:05.086Z,29.20
2023-02-11T19:52:35.986Z,28.20
2023-02-11T19:55:07.666Z,28.70
2023-02-11T19:57:41.416Z,27.77
2023-02-11T20:00:13.059Z,36.40
2023-02-11T20:02:44.266Z,34.80
2023-02-11T20:05:16.458Z,28.90
2023-02-11T20:07:50.305Z,33.73
2023-02-11T20:10:20.736Z,35.60
2023-02-11T20:12:51.540Z,31.90
2023-02-11T20:15:22.220Z,32.80
2023-02-11T20:17:53.084Z,31.60
2023-02-11T20:20:25.746Z,27.77
2023-02-11T20:22:59.367Z,25.00
2023-02-11T20:25:30.973Z,25.97
2023-02-11T20:28:00.831Z,26.97
2023-02-11T20:30:33.894Z,26.27
2023-02-11T20:33:04.653Z,23.20
2023-02-11T20:35:37.785Z,25.60
2023-02-11T20:38:08.517Z,26.33
2023-02-11T20:40:39.328Z,27.00
2023-02-11T20:43:11.162Z,27.60
2023-02-11T20:45:41.483Z,27.50
2023-02-11T20:48:11.769Z,28.17
2023-02-11T20:50:47.999Z,32.60
2023-02-11T20:53:18.351Z,37.20
2023-02-11T20:55:54.571Z,29.87
2023-02-11T20:58:26.898Z,35.70
2023-02-11T21:00:57.982Z,26.70
2023-02-11T21:03:29.864Z,25.23
2023-02-11T21:06:08.906Z,24.90
2023-02-11T21:08:41.704Z,35.23
2023-02-11T21:11:12.067Z,28.70
2023-02-11T21:13:46.107Z,31.93
2023-02-11T21:16:18.639Z,31.13
2023-02-11T21:18:51.108Z,29.67
2023-02-11T21:21:24.653Z,29.73
2023-02-11T21:24:00.434Z,26.80
2023-02-11T21:26:32.062Z,23.90
2023-02-11T21:29:04.042Z,28.60
2023-02-11T21:31:37.466Z,35.70
2023-02-11T21:34:08.218Z,29.73
2023-02-11T21:36:40.451Z,59.13
2023-02-11T21:39:14.618Z,28.70
2023-02-11T21:41:45.779Z,24.17
2023-02-11T21:44:17.894Z,26.10
2023-02-11T21:46:48.663Z,25.20
2023-02-11T21:49:20.115Z,24.57
2023-02-11T21:51:51.337Z,26.07
2023-02-11T21:54:26.817Z,23.20
2023-02-11T21:56:56.787Z,26.00
2023-02-11T21:59:26.760Z,23.43
2023-02-11T22:01:56.186Z,22.33
2023-02-11T22:04:25.483Z,22.30
2023-02-11T22:06:57.634Z,24.00
2023-02-11T22:09:27.810Z,24.40
2023-02-11T22:11:58.821Z,21.90
2023-02-11T22:14:31.939Z,24.53
2023-02-11T22:17:01.931Z,22.57
2023-02-11T22:19:33.193Z,23.10
2023-02-11T22:22:05.198Z,21.50
2023-02-11T22:24:36.539Z,24.07
2023-02-11T22:27:06.929Z,24.83
2023-02-11T22:29:36.996Z,21.70
2023-02-11T22:32:06.304Z,24.60
2023-02-11T22:34:35.645Z,26.93
2023-02-11T22:37:07.852Z,23.70
2023-02-11T22:39:36.839Z,29.87
2023-02-11T22:42:05.954Z,25.83
2023-02-11T22:44:34.591Z,24.73
2023-02-11T22:47:03.322Z,22.90
2023-02-11T22:49:32.666Z,28.33
2023-02-11T22:52:01.531Z,25.17
2023-02-11T22:54:31.605Z,28.13
2023-02-11T22:57:00.441Z,24.67
2023-02-11T22:59:29.173Z,33.47
2023-02-11T23:01:58.013Z,25.20
2023-02-11T23:04:26.784Z,23.37
2023-02-11T23:06:55.534Z,23.47
2023-02-11T23:09:24.322Z,22.20
2023-02-11T23:11:55.765Z,21.93
2023-02-11T23:14:24.547Z,22.33
2023-02-11T23:16:53.299Z,23.47
2023-02-11T23:19:22.113Z,22.00
2023-02-11T23:21:52.913Z,21.50
2023-02-11T23:24:21.628Z,22.73
2023-02-11T23:26:50.334Z,22.50
2023-02-11T23:29:20.523Z,22.20
2023-02-11T23:31:50.045Z,21.73
2023-02-11T23:34:24.057Z,24.03
2023-02-11T23:36:52.916Z,21.33
2023-02-11T23:39:21.947Z,21.03
2023-02-11T23:41:52.919Z,21.63
2023-02-11T23:44:23.100Z,23.37
2023-02-11T23:46:51.832Z,20.30
2023-02-11T23:49:20.543Z,20.83
2023-02-11T23:51:49.246Z,22.73
2023-02-11T23:54:17.940Z,21.20
2023-02-11T23:56:46.689Z,22.67
2023-02-11T23:59:15.442Z,20.23
